Main page
METAR-TAF:

METAR-TAF

Airports :

Bric della Croce

Turin, Italy

latitude: 45-02N, longitude: 007-44E, elevation: 709 m

Current weather observation

The report was made 43 minutes ago, at 11:55 UTC
Calm wind
Temperature 22°C
Humidity 60%
Pressure 1020 hPa
Visibility 10 km or more
no clouds below 1500 m and no cumulonimbus

METAR: LIMK 061155Z 00000KT CAVOK 22/14 Q1020 RMK SKC VAL NIL VIS MIN 9999

Time: 14:38 (12:38 UTC)


TAF: missing

Weather observations and forecasts of more than 4000 airports (METAR and TAF reports).

The available stations are represented by yellow and red dots on the map.

Hover mouse over dot to see the name of the station.

Then click to see weather observations and forecasts.

To change the map : click on the green buttons with a black cross to zoom in, on the green button with a dash to zoom out, or on the green arrows for adjacent maps.


METAR-TAF: